Time;durP1;ratioP1;P1;durP2;ratioP2;P2;SDS_P1;SDS_P2;PMS_P1;PMS_P2;Temp;Humidity;BMP_temperature;BMP_pressure;BME280_temperature;BME280_humidity;BME280_pressure;Samples;Min_cycle;Max_cycle;Signal;HPM_P1;HPM_P2
2022/04/30 00:04:55;;;;;;;2.63;2.03;;;;;;;17.52;56.79;97145.63;10326628;28;20112;-23
2022/04/30 00:09:55;;;;;;;2.80;1.83;;;;;;;17.58;57.62;97135.56;10326647;28;20292;-22
2022/04/30 00:14:56;;;;;;;3.83;1.97;;;;;;;17.65;57.55;97138.16;10327078;28;20030;-22
2022/04/30 00:19:57;;;;;;;2.55;2.35;;;;;;;17.58;55.29;97140.63;10342760;28;20049;-22
2022/04/30 00:24:57;;;;;;;2.10;1.90;;;;;;;17.51;54.61;97144.75;10364109;28;20049;-23
2022/04/30 00:29:58;;;;;;;2.20;1.83;;;;;;;17.49;54.17;97141.38;10327412;28;20035;-24
2022/04/30 00:34:59;;;;;;;2.95;1.85;;;;;;;17.49;54.00;97143.06;10324795;28;20033;-22
2022/04/30 00:40:00;;;;;;;2.20;2.00;;;;;;;17.45;54.31;97136.25;10333999;28;20037;-22
2022/04/30 00:45:01;;;;;;;2.17;1.98;;;;;;;17.48;54.04;97141.38;10333348;28;20041;-23
2022/04/30 00:50:01;;;;;;;2.40;1.87;;;;;;;17.48;54.44;97141.38;10346012;28;20041;-24
2022/04/30 00:55:02;;;;;;;1.95;1.80;;;;;;;17.47;53.99;97134.59;10369956;28;20023;-22
2022/04/30 01:00:04;;;;;;;2.33;2.00;;;;;;;17.47;54.08;97137.13;10333410;28;20045;-22
2022/04/30 01:05:14;;;;;;;2.08;1.52;;;;;;;17.47;54.13;97137.13;10346091;28;20519;-22
2022/04/30 01:10:14;;;;;;;2.88;1.85;;;;;;;17.60;57.58;97138.94;10368271;28;20031;-22
2022/04/30 01:15:14;;;;;;;3.38;1.95;;;;;;;17.62;57.68;97132.22;10332268;28;20038;-22
2022/04/30 01:20:16;;;;;;;2.70;1.92;;;;;;;17.63;57.18;97138.97;10331938;28;20603;-22
2022/04/30 01:25:19;;;;;;;2.33;2.10;;;;;;;17.51;54.55;97124.50;10331519;28;20037;-21
2022/04/30 01:30:19;;;;;;;2.10;1.75;;;;;;;17.51;54.12;97143.91;10339987;28;20411;-23
2022/04/30 01:40:39;;;;;;;2.58;1.88;;;;;;;17.49;54.34;97145.59;10331253;28;20034;-22
2022/04/30 01:45:40;;;;;;;1.73;1.63;;;;;;;17.46;54.37;97146.41;10330835;28;20038;-22
2022/04/30 01:50:42;;;;;;;2.72;1.65;;;;;;;17.41;54.10;97126.94;10331209;28;20041;-23
2022/04/30 01:55:43;;;;;;;2.08;1.70;;;;;;;17.50;53.77;97132.09;10330606;28;20041;-22
2022/04/30 02:00:53;;;;;;;1.70;1.60;;;;;;;17.52;53.74;97125.38;10330168;28;20030;-22
2022/04/30 02:05:53;;;;;;;1.60;1.48;;;;;;;17.56;53.89;97127.09;10329670;28;20050;-22
2022/04/30 02:10:54;;;;;;;1.95;1.67;;;;;;;17.61;56.92;97122.91;10330160;28;20038;-23
2022/04/30 02:15:56;;;;;;;4.28;2.28;;;;;;;17.67;57.12;97125.53;10329580;28;20486;-22
2022/04/30 02:20:57;;;;;;;2.90;1.80;;;;;;;17.67;57.14;97120.47;10346232;28;20530;-23
2022/04/30 02:26:04;;;;;;;1.70;1.60;;;;;;;17.60;54.32;97116.16;10359229;28;20076;-21
2022/04/30 02:31:04;;;;;;;1.27;1.15;;;;;;;17.58;53.88;97111.06;10344242;28;20068;-22
2022/04/30 02:36:05;;;;;;;1.60;1.50;;;;;;;17.57;54.21;97103.50;10345338;28;20058;-22
2022/04/30 02:41:05;;;;;;;1.63;1.52;;;;;;;17.56;53.78;97107.69;10329359;28;20034;-23
2022/04/30 02:46:05;;;;;;;1.97;1.30;;;;;;;17.56;54.13;97092.50;10328430;28;20133;-21
2022/04/30 02:51:07;;;;;;;1.80;1.50;;;;;;;17.54;54.02;97099.22;10345916;28;20033;-23
2022/04/30 02:56:10;;;;;;;1.60;1.50;;;;;;;17.55;53.85;97100.06;10356663;28;20034;-23
2022/04/30 03:01:10;;;;;;;2.33;1.50;;;;;;;17.55;53.99;97105.13;10328086;28;20120;-22
2022/04/30 03:06:32;;;;;;;1.92;1.75;;;;;;;17.55;54.04;97102.59;10328367;28;20497;-21
2022/04/30 03:11:32;;;;;;;2.75;1.92;;;;;;;17.58;56.92;97113.59;10328665;28;20037;-23
2022/04/30 03:21:53;;;;;;;2.00;1.80;;;;;;;17.66;57.31;97095.97;10362000;28;20026;-23
2022/04/30 03:26:54;;;;;;;1.63;1.52;;;;;;;17.58;54.62;97090.00;10350382;28;20033;-23
2022/04/30 03:31:56;;;;;;;1.77;1.58;;;;;;;17.57;54.34;97086.59;10348338;28;20069;-22
2022/04/30 03:36:56;;;;;;;2.08;1.70;;;;;;;17.57;54.12;97078.16;10341665;28;20065;-23
2022/04/30 03:41:56;;;;;;;1.50;1.40;;;;;;;17.56;54.44;97086.59;10327334;28;20461;-22
2022/04/30 03:46:57;;;;;;;1.50;1.40;;;;;;;17.54;54.17;97076.44;10327267;28;20453;-22
2022/04/30 03:51:57;;;;;;;1.70;1.60;;;;;;;17.56;54.19;97071.41;10345403;28;20564;-23
2022/04/30 03:56:57;;;;;;;1.73;1.50;;;;;;;17.54;54.29;97068.00;10348944;28;20038;-21
2022/04/30 04:01:58;;;;;;;1.60;1.43;;;;;;;17.55;54.26;97074.75;10327129;28;20045;-22
2022/04/30 04:06:59;;;;;;;2.08;1.50;;;;;;;17.53;54.10;97066.31;10326607;28;20038;-22
2022/04/30 04:11:59;;;;;;;1.60;1.50;;;;;;;17.55;55.83;97069.69;10347639;28;20038;-21
2022/04/30 04:22:18;;;;;;;1.83;1.73;;;;;;;17.67;57.30;97072.34;10352426;28;20100;-23
2022/04/30 04:27:19;;;;;;;1.87;1.57;;;;;;;17.62;55.73;97081.56;10334228;28;20467;-23
2022/04/30 04:32:19;;;;;;;1.73;1.63;;;;;;;17.58;54.49;97074.81;10358002;28;20492;-24
2022/04/30 04:37:20;;;;;;;2.13;1.83;;;;;;;17.57;54.31;97078.16;10334016;28;20107;-23
2022/04/30 04:42:20;;;;;;;1.40;1.30;;;;;;;17.56;54.44;97074.78;10332880;28;20038;-22
2022/04/30 04:47:21;;;;;;;1.58;1.48;;;;;;;17.55;54.13;97074.75;10333125;28;20043;-22
2022/04/30 04:52:22;;;;;;;1.30;1.20;;;;;;;17.55;54.30;97072.22;10333691;28;20033;-22
2022/04/30 04:57:22;;;;;;;3.08;1.55;;;;;;;17.55;54.29;97079.81;10333714;28;20294;-23
2022/04/30 05:02:23;;;;;;;1.30;1.20;;;;;;;17.56;54.33;97086.59;10333349;28;20038;-21
2022/04/30 05:07:25;;;;;;;1.83;1.60;;;;;;;17.56;54.21;97091.66;10333647;28;20036;-24
2022/04/30 05:12:25;;;;;;;2.75;1.10;;;;;;;17.51;54.38;97083.16;10332977;28;20041;-23
2022/04/30 05:17:26;;;;;;;2.17;2.00;;;;;;;17.59;57.26;97089.16;10332313;28;20033;-22
2022/04/30 05:22:26;;;;;;;1.93;1.70;;;;;;;17.67;57.43;97095.13;10331300;28;20092;-23
2022/04/30 05:27:26;;;;;;;1.77;1.57;;;;;;;17.66;57.01;97095.97;10330294;28;20037;-23
2022/04/30 05:32:27;;;;;;;1.92;1.40;;;;;;;17.62;56.42;97092.56;10357373;28;20041;-23
2022/04/30 05:37:27;;;;;;;1.80;1.57;;;;;;;17.60;55.31;97098.44;10337328;28;20035;-24
2022/04/30 05:42:28;;;;;;;1.87;1.60;;;;;;;17.58;54.52;97105.19;10331109;28;20034;-22
2022/04/30 05:47:28;;;;;;;1.57;1.47;;;;;;;17.57;54.58;97108.56;10331510;28;20042;-23
2022/04/30 05:52:28;;;;;;;2.43;1.63;;;;;;;17.57;54.56;97113.63;10331231;28;20351;-22
2022/04/30 05:57:29;;;;;;;1.53;1.27;;;;;;;17.58;54.59;97117.84;10330543;28;20034;-23
2022/04/30 06:02:30;;;;;;;1.63;1.50;;;;;;;17.56;54.93;97116.97;10359266;28;20038;-23
2022/04/30 06:07:30;;;;;;;1.50;1.30;;;;;;;17.57;54.81;97119.50;10371042;28;20049;-22
2022/04/30 06:12:31;;;;;;;1.77;1.67;;;;;;;17.55;55.21;97120.31;10355178;28;20061;-24
2022/04/30 06:17:32;;;;;;;1.63;1.45;;;;;;;17.59;55.99;97124.59;10360899;28;20038;-22
2022/04/30 06:22:34;;;;;;;1.58;1.48;;;;;;;17.68;57.05;97138.16;10329427;28;20489;-23
2022/04/30 06:27:35;;;;;;;1.50;1.40;;;;;;;17.69;57.04;97126.38;10332439;28;20409;-24
2022/04/30 06:32:35;;;;;;;2.40;1.40;;;;;;;17.68;55.16;97138.16;10356119;28;20029;-23
2022/04/30 06:37:35;;;;;;;2.28;1.52;;;;;;;17.64;54.58;97140.66;10343987;28;20033;-22
2022/04/30 06:42:41;;;;;;;1.83;1.27;;;;;;;17.63;55.13;97142.38;10366427;28;20041;-22
2022/04/30 06:47:41;;;;;;;1.63;1.50;;;;;;;17.61;55.18;97140.66;10342013;28;20125;-22
2022/04/30 06:58:01;;;;;;;1.42;1.33;;;;;;;17.61;55.01;97143.19;10328694;28;20368;-22
2022/04/30 07:03:07;;;;;;;1.30;1.20;;;;;;;17.60;54.67;97142.34;10328233;28;20457;-22
2022/04/30 07:08:08;;;;;;;;;;;;;;;17.61;54.83;97145.72;10328393;28;20485;-22
2022/04/30 07:13:08;;;;;;;1.33;1.23;;;;;;;17.60;55.00;97144.88;10327531;28;19939;-24
2022/04/30 07:18:09;;;;;;;3.93;2.23;;;;;;;17.63;54.77;97144.03;10328024;28;20038;-22
2022/04/30 07:23:09;;;;;;;7.90;1.67;;;;;;;17.69;58.22;97144.97;10335534;28;20782;-22
2022/04/30 07:28:09;;;;;;;5.07;2.13;;;;;;;17.73;59.23;97143.31;10339201;28;20096;-22
2022/04/30 07:33:10;;;;;;;4.67;1.60;;;;;;;17.72;57.70;97142.44;10337094;28;20699;-22
2022/04/30 07:38:10;;;;;;;1.53;1.30;;;;;;;17.71;55.01;97157.63;10327748;28;20042;-20
2022/04/30 07:43:10;;;;;;;2.10;1.50;;;;;;;17.69;54.95;97146.63;10353066;28;20408;-22
2022/04/30 07:48:11;;;;;;;3.20;1.60;;;;;;;17.67;54.63;97155.91;10358955;28;20042;-22
2022/04/30 07:53:14;;;;;;;3.63;1.83;;;;;;;17.65;54.54;97149.97;10358394;28;20289;-23
2022/04/30 07:58:15;;;;;;;2.20;1.67;;;;;;;17.65;54.64;97152.50;10355498;28;20040;-22
2022/04/30 08:03:15;;;;;;;3.37;3.07;;;;;;;17.66;54.54;97159.28;10367110;28;20049;-21
2022/04/30 08:08:16;;;;;;;1.30;1.20;;;;;;;17.63;54.91;97149.09;10328814;28;20285;-22
2022/04/30 08:13:16;;;;;;;3.42;1.80;;;;;;;17.61;54.56;97150.78;10354693;28;20041;-22
2022/04/30 08:18:17;;;;;;;4.73;2.23;;;;;;;17.25;55.30;97152.88;10367386;28;20033;-22
2022/04/30 08:23:18;;;;;;;4.72;3.67;;;;;;;17.28;54.95;97147.84;10332683;28;20034;-24
2022/04/30 08:28:18;;;;;;;14.88;7.45;;;;;;;17.17;54.69;97146.88;10324794;28;20035;-23
2022/04/30 08:33:19;;;;;;;9.32;6.72;;;;;;;17.36;55.03;97149.69;10356999;28;20038;-22
2022/04/30 08:38:19;;;;;;;6.95;4.78;;;;;;;17.34;54.21;97146.22;10332408;28;20165;-22
2022/04/30 08:43:21;;;;;;;6.10;5.50;;;;;;;17.13;54.47;97145.13;10326744;28;20049;-23
2022/04/30 08:48:24;;;;;;;6.28;5.50;;;;;;;17.15;54.66;97148.56;10325918;28;20389;-23
2022/04/30 08:53:24;;;;;;;9.77;6.75;;;;;;;16.92;55.13;97145.72;10325783;28;20112;-22
2022/04/30 08:58:25;;;;;;;8.43;6.18;;;;;;;16.81;55.40;97157.38;10358283;28;20180;-22
2022/04/30 09:03:25;;;;;;;10.68;8.73;;;;;;;16.83;55.53;97149.81;10345546;28;20408;-21
2022/04/30 09:08:26;;;;;;;7.78;6.97;;;;;;;16.90;54.81;97131.38;10332930;28;20493;-23
2022/04/30 09:13:26;;;;;;;7.88;7.03;;;;;;;17.06;55.10;97148.44;10332528;28;20034;-24
2022/04/30 09:18:27;;;;;;;8.67;7.87;;;;;;;16.95;54.97;97140.72;10332860;28;20141;-23
2022/04/30 09:23:32;;;;;;;9.60;7.57;;;;;;;16.91;55.32;97141.50;10330902;28;20772;-21
2022/04/30 09:28:36;;;;;;;10.55;7.18;;;;;;;17.21;55.03;97133.41;10362642;28;20308;-23
2022/04/30 09:33:38;;;;;;;7.75;5.95;;;;;;;17.30;55.51;97125.94;10363457;28;20072;-21
2022/04/30 09:38:38;;;;;;;7.57;6.18;;;;;;;17.28;54.60;97122.53;10331741;28;20042;-22
2022/04/30 09:43:39;;;;;;;8.05;6.93;;;;;;;17.19;54.57;97120.78;10362540;28;20046;-22
2022/04/30 09:54:00;;;;;;;11.32;8.55;;;;;;;16.93;55.34;97112.03;10330993;28;20053;-23
2022/04/30 09:59:06;;;;;;;8.52;7.60;;;;;;;16.89;55.26;97117.03;10330918;28;20039;-22
2022/04/30 10:04:08;;;;;;;14.45;8.20;;;;;;;16.96;55.27;97113.72;10330478;28;20044;-22
2022/04/30 10:09:12;;;;;;;13.65;8.90;;;;;;;16.82;55.48;97103.44;10329892;28;20456;-24
2022/04/30 10:14:34;;;;;;;8.52;7.60;;;;;;;16.97;55.25;97108.69;10330014;28;20049;-22
2022/04/30 10:19:35;;;;;;;12.45;8.57;;;;;;;16.94;55.64;97098.56;10330954;28;20033;-23
2022/04/30 10:24:41;;;;;;;13.68;9.23;;;;;;;16.87;55.54;97083.25;10329560;28;20515;-23
2022/04/30 10:30:23;;;;;;;11.23;8.60;;;;;;;16.83;55.38;97089.13;10332504;28;20029;-22
2022/04/30 10:35:32;;;;;;;12.70;8.95;;;;;;;17.03;54.72;97078.41;10351663;28;20072;-23
2022/04/30 10:41:10;;;;;;;10.85;8.65;;;;;;;17.12;54.63;97080.19;10330066;28;20034;-23
2022/04/30 10:46:13;;;;;;;12.02;8.50;;;;;;;16.88;55.28;97065.59;10328010;28;20097;-22
2022/04/30 10:51:16;;;;;;;9.55;8.52;;;;;;;16.91;55.57;97067.31;10335871;28;20492;-23
2022/04/30 10:56:16;;;;;;;11.15;8.02;;;;;;;17.00;55.17;97062.34;10355597;28;20042;-23
2022/04/30 11:01:19;;;;;;;7.93;7.00;;;;;;;17.10;54.59;97049.84;10328998;28;20089;-23
2022/04/30 11:06:25;;;;;;;9.88;7.45;;;;;;;17.11;55.15;97059.13;10328406;28;20030;-24
2022/04/30 11:11:25;;;;;;;7.67;6.00;;;;;;;16.93;55.74;97046.28;10327797;28;20034;-23
2022/04/30 11:16:31;;;;;;;10.93;7.47;;;;;;;17.02;55.77;97058.16;10327177;28;20034;-23
2022/04/30 11:21:33;;;;;;;8.25;6.43;;;;;;;17.10;55.27;97049.84;10334356;28;20423;-22
2022/04/30 11:26:42;;;;;;;9.15;7.60;;;;;;;17.11;54.99;97051.53;10352216;28;20045;-23
2022/04/30 11:31:43;;;;;;;12.07;9.18;;;;;;;17.01;54.96;97041.28;10354816;28;20416;-22
2022/04/30 11:36:56;;;;;;;9.32;8.30;;;;;;;16.98;55.25;97028.63;10360919;28;20029;-22
2022/04/30 11:41:59;;;;;;;8.02;7.18;;;;;;;16.84;55.70;97045.31;10360812;28;20412;-24
2022/04/30 11:46:59;;;;;;;8.48;7.65;;;;;;;16.82;55.94;97042.75;10357406;28;20030;-23
2022/04/30 11:52:00;;;;;;;11.13;7.87;;;;;;;16.90;55.69;97026.00;10359744;28;20034;-24
2022/04/30 11:57:02;;;;;;;8.38;7.50;;;;;;;16.84;55.82;97030.13;10359481;28;20030;-22
2022/04/30 12:02:04;;;;;;;8.40;7.22;;;;;;;16.97;55.54;97034.47;10360353;28;20125;-24
2022/04/30 12:07:06;;;;;;;7.18;6.07;;;;;;;16.92;55.33;97031.06;10363607;28;20038;-22
2022/04/30 12:12:18;;;;;;;7.15;6.45;;;;;;;17.13;54.90;97036.34;10349224;28;20084;-22
2022/04/30 12:17:26;;;;;;;9.73;7.05;;;;;;;17.05;55.16;97033.75;10366867;28;20030;-24
2022/04/30 12:27:59;;;;;;;7.85;7.05;;;;;;;17.11;55.12;97030.44;10326381;28;20122;-23
2022/04/30 12:33:04;;;;;;;8.77;6.68;;;;;;;17.06;54.99;97021.97;10357905;28;20049;-23
2022/04/30 12:38:13;;;;;;;8.95;7.28;;;;;;;17.16;54.99;97011.09;10338485;28;20121;-22
2022/04/30 12:43:14;;;;;;;9.20;7.35;;;;;;;17.18;54.73;97017.00;10334375;28;20030;-25
2022/04/30 12:48:15;;;;;;;8.68;6.60;;;;;;;17.16;54.85;97013.63;10334146;28;20482;-23
2022/04/30 12:53:15;;;;;;;9.10;6.88;;;;;;;17.15;54.59;97017.00;10343516;28;20040;-24
2022/04/30 12:58:16;;;;;;;9.17;7.30;;;;;;;17.11;54.52;97010.19;10367050;28;20036;-24
2022/04/30 13:03:16;;;;;;;9.60;7.28;;;;;;;17.00;54.24;97011.78;10368820;28;20040;-24
2022/04/30 13:08:17;;;;;;;7.73;6.87;;;;;;;17.09;53.96;97024.50;10374887;28;20044;-24
2022/04/30 13:13:32;;;;;;;9.43;6.50;;;;;;;17.08;54.03;97032.94;10373931;28;20041;-23
2022/04/30 13:18:34;;;;;;;7.57;6.60;;;;;;;16.92;53.94;97034.44;10363528;28;20040;-25
2022/04/30 13:23:36;;;;;;;10.13;7.10;;;;;;;16.85;53.89;97044.47;10364754;28;20124;-22
2022/04/30 13:28:36;;;;;;;8.55;7.00;;;;;;;16.87;53.97;97047.88;10339545;28;20061;-23
2022/04/30 13:33:36;;;;;;;8.57;7.23;;;;;;;16.68;54.57;97043.44;10365355;28;20060;-23
2022/04/30 13:38:38;;;;;;;7.33;6.23;;;;;;;16.67;53.77;97046.78;10370581;28;20480;-23
2022/04/30 13:43:38;;;;;;;7.00;6.03;;;;;;;16.69;53.42;97046.81;10339005;28;20038;-23
2022/04/30 13:48:40;;;;;;;8.20;5.60;;;;;;;16.53;53.28;97015.44;10350468;28;20050;-23
2022/04/30 13:53:40;;;;;;;8.10;5.15;;;;;;;16.67;53.28;97046.78;10333608;28;20289;-23
2022/04/30 13:58:41;;;;;;;5.53;4.70;;;;;;;16.77;53.58;97042.72;10343274;28;20405;-23
2022/04/30 14:03:41;;;;;;;5.47;4.23;;;;;;;16.95;52.75;97034.50;10367471;28;20307;-22
2022/04/30 14:08:42;;;;;;;7.40;4.40;;;;;;;16.82;53.00;97027.59;10371371;28;20303;-22
2022/04/30 14:19:02;;;;;;;6.28;4.57;;;;;;;16.93;51.92;97025.19;10329043;28;20044;-23
2022/04/30 14:24:03;;;;;;;6.82;5.30;;;;;;;16.91;52.45;97022.63;10329483;28;20077;-22
2022/04/30 14:29:04;;;;;;;7.22;4.68;;;;;;;16.98;52.12;97018.50;10329457;28;20066;-23
2022/04/30 14:34:05;;;;;;;4.70;4.00;;;;;;;16.77;52.24;97012.38;10355207;28;20030;-23
2022/04/30 14:39:06;;;;;;;4.75;4.28;;;;;;;16.73;52.26;97001.38;10329607;28;20042;-22
2022/04/30 14:44:07;;;;;;;9.18;4.30;;;;;;;16.84;52.25;97010.75;10328927;28;20104;-24
2022/04/30 14:49:07;;;;;;;5.43;4.63;;;;;;;16.79;52.00;97006.47;10328567;28;20045;-23
2022/04/30 14:54:08;;;;;;;6.00;4.53;;;;;;;16.79;52.39;97007.34;10327958;28;20041;-24
2022/04/30 14:59:09;;;;;;;7.57;5.03;;;;;;;16.79;51.92;97002.28;10363334;28;20383;-24
2022/04/30 15:04:09;;;;;;;8.30;5.50;;;;;;;16.74;52.08;97013.19;10354609;28;20293;-23
2022/04/30 15:09:10;;;;;;;5.80;5.20;;;;;;;16.62;52.19;97000.38;10328915;28;20052;-24
2022/04/30 15:14:10;;;;;;;7.73;5.83;;;;;;;16.64;52.39;97005.47;10328541;28;20503;-24
2022/04/30 15:19:10;;;;;;;5.53;4.93;;;;;;;16.75;52.62;96999.69;10327903;28;20029;-25
2022/04/30 15:24:11;;;;;;;6.97;6.27;;;;;;;16.67;52.45;96996.25;10327324;28;20367;-24
2022/04/30 15:29:12;;;;;;;6.83;5.37;;;;;;;16.70;53.06;97006.38;10327291;28;20527;-24
2022/04/30 15:34:12;;;;;;;5.45;4.95;;;;;;;16.74;52.43;97005.59;10365899;28;20200;-23
2022/04/30 15:39:13;;;;;;;7.93;5.23;;;;;;;16.66;52.45;97017.28;10367905;28;20091;-23
2022/04/30 15:44:13;;;;;;;8.23;5.10;;;;;;;16.54;52.55;97019.66;10330266;28;20037;-25
2022/04/30 15:54:33;;;;;;;8.70;6.25;;;;;;;16.36;52.87;96995.81;10368017;28;20215;-20
2022/04/30 15:59:33;;;;;;;8.43;5.93;;;;;;;16.46;53.18;97006.06;10327131;28;20034;-24
2022/04/30 16:04:34;;;;;;;7.03;5.68;;;;;;;16.47;53.36;97014.53;10339729;28;20065;-23
2022/04/30 16:09:35;;;;;;;6.45;5.57;;;;;;;16.51;53.13;97004.47;10374292;28;20492;-23
2022/04/30 16:14:35;;;;;;;10.95;5.75;;;;;;;16.58;52.87;97000.31;10335728;28;20637;-23
2022/04/30 16:19:36;;;;;;;8.70;6.60;;;;;;;16.61;52.79;96991.09;10334898;28;20154;-23
2022/04/30 16:24:37;;;;;;;9.05;6.32;;;;;;;16.57;53.06;96993.56;10334415;28;20066;-22
2022/04/30 16:29:37;;;;;;;7.30;6.60;;;;;;;16.46;53.21;97000.19;10336438;28;20049;-23
2022/04/30 16:34:38;;;;;;;8.00;6.30;;;;;;;16.42;53.50;96995.91;10367422;28;20046;-23
2022/04/30 16:39:38;;;;;;;7.53;6.17;;;;;;;16.39;53.34;96984.13;10333825;28;20030;-24
2022/04/30 16:44:39;;;;;;;8.63;7.50;;;;;;;16.52;53.58;97006.16;10332523;28;20464;-22
2022/04/30 16:49:39;;;;;;;9.90;7.10;;;;;;;16.56;53.06;96999.47;10353511;28;20033;-22
2022/04/30 17:00:00;;;;;;;11.95;7.18;;;;;;;16.53;53.07;96997.75;10333180;28;20351;-23
2022/04/30 17:05:00;;;;;;;10.95;7.22;;;;;;;16.67;53.22;96991.19;10332447;28;20038;-23
2022/04/30 17:10:05;;;;;;;12.23;7.05;;;;;;;16.67;52.43;96985.25;10333024;28;20137;-24
2022/04/30 17:15:07;;;;;;;10.68;6.43;;;;;;;16.75;52.88;97000.53;10332749;28;20037;-24
2022/04/30 17:20:12;;;;;;;10.20;6.65;;;;;;;16.71;52.39;96997.13;10331723;28;20038;-23
2022/04/30 17:25:13;;;;;;;6.57;5.80;;;;;;;16.75;52.48;96989.59;10331923;28;20038;-23
2022/04/30 17:30:14;;;;;;;7.43;5.32;;;;;;;16.66;52.67;96986.97;10339063;28;20604;-23
2022/04/30 17:40:37;;;;;;;7.25;4.93;;;;;;;16.65;52.58;97008.03;10364760;28;20061;-23
2022/04/30 17:45:41;;;;;;;6.82;4.75;;;;;;;16.63;52.85;97003.78;10331163;28;20386;-23
2022/04/30 17:50:44;;;;;;;5.55;4.40;;;;;;;16.60;52.66;97014.69;10344301;28;20611;-23
2022/04/30 17:55:44;;;;;;;4.85;4.32;;;;;;;16.63;52.80;97009.66;10358988;28;20026;-24
2022/04/30 18:00:45;;;;;;;5.93;3.83;;;;;;;16.81;52.66;97012.41;10350772;28;20026;-24
2022/04/30 18:05:48;;;;;;;5.75;4.45;;;;;;;16.99;51.42;97017.66;10369770;28;20781;-23
2022/04/30 18:10:48;;;;;;;4.97;4.30;;;;;;;17.03;51.05;97016.84;10329923;28;20061;-22
2022/04/30 18:15:49;;;;;;;5.20;3.67;;;;;;;17.06;51.59;97027.03;10353916;28;20069;-23
2022/04/30 18:20:50;;;;;;;4.55;3.90;;;;;;;17.08;51.86;97025.34;10371027;28;20243;-24
2022/04/30 18:25:51;;;;;;;12.60;4.27;;;;;;;17.17;52.23;97036.38;10332490;28;20493;-25
2022/04/30 18:30:51;;;;;;;3.92;3.45;;;;;;;17.18;51.89;97037.25;10341846;28;20518;-23
2022/04/30 18:35:52;;;;;;;6.70;4.65;;;;;;;17.18;51.75;97034.72;10343040;28;20033;-22
2022/04/30 18:40:52;;;;;;;3.85;3.05;;;;;;;17.18;51.79;97037.25;10328778;28;20026;-23
2022/04/30 18:45:53;;;;;;;7.07;3.80;;;;;;;17.15;51.98;97034.69;10328278;28;20037;-23
2022/04/30 18:50:54;;;;;;;9.07;4.40;;;;;;;17.32;55.01;97053.44;10328739;28;20034;-23
2022/04/30 19:01:15;;;;;;;4.50;3.50;;;;;;;17.30;52.09;97058.47;10327811;28;20034;-23
2022/04/30 19:06:16;;;;;;;5.28;4.05;;;;;;;17.23;51.64;97060.94;10361607;28;20038;-23
2022/04/30 19:11:16;;;;;;;4.07;3.07;;;;;;;17.21;51.65;97060.03;10351019;28;20038;-23
2022/04/30 19:16:17;;;;;;;5.93;3.63;;;;;;;17.19;51.71;97065.09;10362475;28;20292;-24
2022/04/30 19:21:19;;;;;;;3.77;3.30;;;;;;;17.17;51.64;97069.28;10354610;28;20045;-23
2022/04/30 19:26:20;;;;;;;3.60;3.30;;;;;;;17.18;51.87;97072.66;10360544;28;20300;-23
2022/04/30 19:31:21;;;;;;;3.88;3.22;;;;;;;17.17;51.89;97076.88;10352370;28;20041;-23
2022/04/30 19:36:21;;;;;;;4.20;3.20;;;;;;;17.17;52.10;97086.16;10340185;28;20493;-23
2022/04/30 19:41:23;;;;;;;3.37;3.00;;;;;;;17.17;52.02;97088.69;10349147;28;20030;-25
2022/04/30 19:46:23;;;;;;;9.82;3.75;;;;;;;17.37;56.48;97087.25;10361392;28;20149;-25
2022/04/30 19:51:23;;;;;;;8.27;4.53;;;;;;;17.43;55.15;97089.84;10352360;28;20040;-24
2022/04/30 19:56:24;;;;;;;3.50;3.20;;;;;;;17.34;51.93;97087.19;10353077;28;20636;-25
2022/04/30 20:01:25;;;;;;;3.63;3.33;;;;;;;17.28;52.05;97089.63;10362855;28;20147;-23
2022/04/30 20:06:26;;;;;;;4.63;3.17;;;;;;;17.23;52.06;97088.75;10362879;28;20122;-24
2022/04/30 20:16:49;;;;;;;5.13;3.10;;;;;;;17.23;52.06;97091.28;10360914;28;20076;-23
2022/04/30 20:21:51;;;;;;;5.35;3.35;;;;;;;17.21;52.09;97092.94;10361327;28;20064;-23
2022/04/30 20:26:52;;;;;;;5.03;3.33;;;;;;;17.21;52.33;97101.38;10361723;28;20406;-24
2022/04/30 20:37:12;;;;;;;3.40;3.10;;;;;;;17.24;52.16;97100.56;10353339;28;20689;-25
2022/04/30 20:42:15;;;;;;;5.18;3.50;;;;;;;17.38;56.62;97104.97;10353258;28;20044;-23
2022/04/30 20:47:16;;;;;;;3.22;2.80;;;;;;;17.43;53.32;97105.88;10321525;28;20121;-24
2022/04/30 20:52:16;;;;;;;3.17;2.88;;;;;;;17.36;52.15;97103.25;10351371;28;20103;-24
2022/04/30 20:57:17;;;;;;;3.40;3.10;;;;;;;17.29;52.34;97106.50;10365291;28;20500;-23
2022/04/30 21:02:17;;;;;;;3.15;2.85;;;;;;;17.25;52.44;97095.50;10369050;28;20506;-23
2022/04/30 21:07:18;;;;;;;3.27;3.00;;;;;;;17.26;52.14;97101.44;10367136;28;20111;-23
2022/04/30 21:12:18;;;;;;;3.23;2.93;;;;;;;17.23;52.29;97109.00;10364424;28;20860;-23
2022/04/30 21:17:20;;;;;;;3.13;2.85;;;;;;;17.22;52.59;97105.63;10366486;28;20284;-23
2022/04/30 21:22:22;;;;;;;4.30;2.90;;;;;;;17.22;52.01;97108.13;10367936;28;20041;-23
2022/04/30 21:27:23;;;;;;;3.72;3.17;;;;;;;17.22;52.44;97107.28;10368579;28;20396;-22
2022/04/30 21:32:24;;;;;;;3.20;2.90;;;;;;;17.21;52.35;97108.13;10383027;28;20176;-23
2022/04/30 21:37:24;;;;;;;4.10;3.22;;;;;;;17.37;53.17;97102.41;10371904;28;20030;-23
2022/04/30 21:42:25;;;;;;;6.43;3.45;;;;;;;17.45;54.13;97116.00;10349960;28;20397;-24
2022/04/30 21:47:25;;;;;;;6.05;2.33;;;;;;;17.38;51.98;97106.66;10331504;28;20043;-23
2022/04/30 21:52:26;;;;;;;6.27;2.77;;;;;;;17.28;52.14;97110.75;10339866;28;20040;-25
2022/04/30 22:02:47;;;;;;;3.13;2.83;;;;;;;17.22;52.00;97109.81;10371243;28;20045;-23
2022/04/30 22:07:47;;;;;;;3.42;2.85;;;;;;;17.19;52.20;97105.59;10369663;28;20037;-23
2022/04/30 22:12:48;;;;;;;3.90;3.03;;;;;;;17.18;52.19;97116.53;10369326;28;20034;-24
2022/04/30 22:17:48;;;;;;;3.30;3.00;;;;;;;17.17;51.97;97107.22;10367372;28;20557;-23
2022/04/30 22:22:49;;;;;;;3.40;2.97;;;;;;;17.19;51.97;97117.38;10329703;28;20031;-23
2022/04/30 22:27:49;;;;;;;3.05;2.75;;;;;;;17.17;52.19;97121.56;10329659;28;20038;-23
2022/04/30 22:32:50;;;;;;;3.80;3.10;;;;;;;17.28;52.18;97114.94;10386416;28;20033;-23
2022/04/30 22:37:50;;;;;;;4.40;3.17;;;;;;;17.41;55.91;97122.72;10382197;28;20069;-23
2022/04/30 22:42:54;;;;;;;3.15;2.75;;;;;;;17.38;52.29;97121.84;10343415;28;20420;-24
2022/04/30 22:47:55;;;;;;;3.25;2.92;;;;;;;17.32;51.95;97120.06;10329814;28;20042;-23
2022/04/30 22:52:57;;;;;;;3.47;3.08;;;;;;;17.25;51.90;97135.16;10329034;28;20069;-23
2022/04/30 22:57:57;;;;;;;3.55;3.10;;;;;;;17.14;52.02;97107.22;10354163;28;20435;-25
2022/04/30 23:02:58;;;;;;;3.22;2.92;;;;;;;17.21;51.84;97111.50;10369286;28;20034;-23
2022/04/30 23:07:58;;;;;;;4.32;2.88;;;;;;;17.20;52.01;97108.94;10340744;28;20042;-23
2022/04/30 23:18:18;;;;;;;3.53;2.72;;;;;;;17.19;52.18;97104.72;10361306;28;20485;-23
2022/04/30 23:23:18;;;;;;;4.17;2.90;;;;;;;17.19;51.75;97097.13;10336252;28;20045;-24
2022/04/30 23:28:19;;;;;;;3.97;2.90;;;;;;;17.18;51.89;97092.91;10327876;28;20038;-22
2022/04/30 23:33:19;;;;;;;3.00;2.70;;;;;;;17.35;54.23;97089.75;10392544;28;20778;-23
2022/04/30 23:38:20;;;;;;;3.53;3.22;;;;;;;17.37;52.46;97089.75;10341074;28;20525;-22
2022/04/30 23:43:20;;;;;;;3.53;2.70;;;;;;;17.32;51.63;97086.31;10327312;28;20100;-25
2022/04/30 23:48:20;;;;;;;4.10;3.37;;;;;;;17.26;51.73;97082.03;10327929;28;20034;-23
2022/04/30 23:53:23;;;;;;;3.08;2.75;;;;;;;17.23;51.71;97082.00;10327197;28;20046;-24
2022/04/30 23:58:23;;;;;;;3.95;3.22;;;;;;;17.20;51.57;97076.06;10327530;28;20037;-23
